Trinity, Louisiana
Current Conditions -  °F | °C
As of 4:53 PM on Thursday 23 Oct 2014 (Local Time) from KESF Reporting Station
Clear Clear  
Wind Chill: 63°   Ceiling: Unl
Heat Index: 63°   Visibility: 10mi
Dew Point: 51°   Wind: 3mph
Humidity: 65%   Direction: 340°NNW
Pressure: 30.09"   Gusts: NA
Location:  31.5028°N, 91.9028°W
Report Text: KESF 232153Z AUTO 34003KT 10SM CLR 17/11 A3009 RMK AO2 SLP190 T01720106
Loading
Personal Weather Stations






























Interactive Weather Map
Tropical Storm Tracking
New forecast layout! Learn more

10-Day Weather Forecast

Advertisements
Track Severe Weather on mobile